createdAt,value
2023-05-09T00:02:25.054Z,3.90
2023-05-09T00:07:32.449Z,3.60
2023-05-09T00:12:39.716Z,3.60
2023-05-09T00:17:47.584Z,3.30
2023-05-09T00:22:55.783Z,3.30
2023-05-09T00:28:03.362Z,3.10
2023-05-09T00:33:11.333Z,2.80
2023-05-09T00:38:18.729Z,3.10
2023-05-09T00:43:26.438Z,3.10
2023-05-09T00:48:34.395Z,2.70
2023-05-09T00:53:42.505Z,3.40
2023-05-09T00:58:49.985Z,3.00
2023-05-09T01:03:58.035Z,2.60
2023-05-09T01:09:12.421Z,2.70
2023-05-09T01:14:32.392Z,2.90
2023-05-09T01:20:01.040Z,2.70
2023-05-09T01:25:22.685Z,3.10
2023-05-09T01:30:31.479Z,3.00
2023-05-09T01:35:43.794Z,3.40
2023-05-09T01:46:00.119Z,2.80
2023-05-09T01:51:08.377Z,3.50
2023-05-09T01:56:16.731Z,3.20
2023-05-09T02:01:26.719Z,3.70
2023-05-09T02:06:35.365Z,2.90
2023-05-09T02:11:42.669Z,3.40
2023-05-09T02:16:50.322Z,3.00
2023-05-09T02:21:57.887Z,3.40
2023-05-09T02:27:07.638Z,3.20
2023-05-09T02:32:18.128Z,3.60
2023-05-09T02:37:26.623Z,3.20
2023-05-09T02:42:34.116Z,2.90
2023-05-09T02:47:41.535Z,2.90
2023-05-09T02:52:48.944Z,3.10
2023-05-09T02:58:09.376Z,3.90
2023-05-09T03:03:20.167Z,3.90
2023-05-09T03:08:27.422Z,3.20
2023-05-09T03:13:35.161Z,2.80
2023-05-09T03:18:42.566Z,3.10
2023-05-09T03:23:50.016Z,2.80
2023-05-09T03:28:57.470Z,2.50
2023-05-09T03:34:05.163Z,3.00
2023-05-09T03:39:12.537Z,2.20
2023-05-09T03:44:21.009Z,2.40
2023-05-09T03:49:28.282Z,2.20
2023-05-09T03:54:35.719Z,3.30
2023-05-09T03:59:43.251Z,2.70
2023-05-09T04:04:53.194Z,2.90
2023-05-09T04:10:01.759Z,3.00
2023-05-09T04:15:11.720Z,2.80
2023-05-09T04:20:19.747Z,2.80
2023-05-09T04:25:27.051Z,3.00
2023-05-09T04:30:34.546Z,3.10
2023-05-09T04:35:42.084Z,3.70
2023-05-09T04:40:49.889Z,3.50
2023-05-09T04:45:57.390Z,4.00
2023-05-09T04:51:05.608Z,3.90
2023-05-09T04:56:13.078Z,3.90
2023-05-09T05:01:21.325Z,4.40
2023-05-09T05:06:29.687Z,3.70
2023-05-09T05:11:37.331Z,4.90
2023-05-09T05:16:44.885Z,3.90
2023-05-09T05:21:52.212Z,3.50
2023-05-09T05:26:59.597Z,3.40
2023-05-09T05:32:06.929Z,3.80
2023-05-09T05:37:15.080Z,3.70
2023-05-09T05:42:22.488Z,4.40
2023-05-09T05:47:31.922Z,3.80
2023-05-09T05:52:40.217Z,3.20
2023-05-09T05:57:49.395Z,3.40
2023-05-09T06:02:56.659Z,3.30
2023-05-09T06:08:09.489Z,3.40
2023-05-09T06:13:16.838Z,3.20
2023-05-09T06:18:27.575Z,3.40
2023-05-09T06:23:38.041Z,3.10
2023-05-09T06:28:47.785Z,2.90
2023-05-09T06:33:55.257Z,3.30
2023-05-09T06:39:03.022Z,3.40
2023-05-09T06:44:10.358Z,3.00
2023-05-09T06:49:17.482Z,3.20
2023-05-09T06:54:25.303Z,2.90
2023-05-09T06:59:33.476Z,3.00
2023-05-09T07:04:40.985Z,2.80
2023-05-09T07:09:50.824Z,2.90
2023-05-09T07:15:00.396Z,2.70
2023-05-09T07:20:08.956Z,3.00
2023-05-09T07:25:17.105Z,2.80
2023-05-09T07:30:25.477Z,2.80
2023-05-09T07:35:32.848Z,2.40
2023-05-09T07:40:40.259Z,3.00
2023-05-09T07:45:47.746Z,2.50
2023-05-09T07:50:54.935Z,2.40
2023-05-09T07:56:02.233Z,2.20
2023-05-09T08:01:09.867Z,2.40
2023-05-09T08:06:17.069Z,2.80
2023-05-09T08:11:24.749Z,2.50
2023-05-09T08:16:32.612Z,2.50
2023-05-09T08:21:39.967Z,2.60
2023-05-09T08:26:47.200Z,2.50
2023-05-09T08:31:54.576Z,2.90
2023-05-09T08:37:01.824Z,2.60
2023-05-09T08:42:10.525Z,2.50
2023-05-09T08:47:18.427Z,2.40
2023-05-09T08:52:25.875Z,2.50
2023-05-09T08:57:33.809Z,2.00
2023-05-09T09:02:42.513Z,2.30
2023-05-09T09:07:51.088Z,2.40
2023-05-09T09:13:01.018Z,2.30
2023-05-09T09:18:11.035Z,2.60
2023-05-09T09:23:22.038Z,2.90
2023-05-09T09:28:29.506Z,2.60
2023-05-09T09:33:37.566Z,2.70
2023-05-09T09:38:45.690Z,2.60
2023-05-09T09:43:53.405Z,2.20
2023-05-09T09:49:01.078Z,2.10
2023-05-09T09:54:10.546Z,2.50
2023-05-09T09:59:19.077Z,2.20
2023-05-09T10:04:27.026Z,2.60
2023-05-09T10:09:35.218Z,2.90
2023-05-09T10:14:46.059Z,2.60
2023-05-09T10:19:54.494Z,3.00
2023-05-09T10:25:16.270Z,2.30
2023-05-09T10:30:31.447Z,2.60
2023-05-09T10:35:47.705Z,2.60
2023-05-09T10:40:58.134Z,2.10
2023-05-09T10:46:06.399Z,2.40
2023-05-09T10:51:14.584Z,2.50
2023-05-09T10:56:32.326Z,2.60
2023-05-09T11:01:40.732Z,2.60
2023-05-09T11:06:51.808Z,2.50
2023-05-09T11:12:01.381Z,2.90
2023-05-09T11:17:10.661Z,2.90
2023-05-09T11:22:21.594Z,2.60
2023-05-09T11:27:30.450Z,2.40
2023-05-09T11:32:43.526Z,2.70
2023-05-09T11:37:52.883Z,2.50
2023-05-09T11:43:01.601Z,2.60
2023-05-09T11:48:12.230Z,2.70
2023-05-09T11:53:19.894Z,2.50
2023-05-09T11:58:28.018Z,2.40
2023-05-09T12:03:36.559Z,2.30
2023-05-09T12:08:44.505Z,2.60
2023-05-09T12:13:53.406Z,2.40
2023-05-09T12:19:01.078Z,2.30
2023-05-09T12:24:09.331Z,2.50
2023-05-09T12:29:17.482Z,2.80
2023-05-09T12:34:25.110Z,3.10
2023-05-09T12:39:32.373Z,2.30
2023-05-09T12:44:40.303Z,2.40
2023-05-09T12:49:52.640Z,2.40
2023-05-09T12:55:10.118Z,2.90
2023-05-09T13:00:22.103Z,2.60
2023-05-09T13:05:29.641Z,2.40
2023-05-09T13:10:37.234Z,2.60
2023-05-09T13:15:45.069Z,2.50
2023-05-09T13:20:52.795Z,2.80
2023-05-09T13:26:00.104Z,2.40
2023-05-09T13:31:10.509Z,2.20
2023-05-09T13:36:17.981Z,2.90
2023-05-09T13:41:25.387Z,2.60
2023-05-09T13:46:32.982Z,2.90
2023-05-09T13:51:40.453Z,2.30
2023-05-09T13:56:48.194Z,2.70
2023-05-09T14:01:57.891Z,2.60
2023-05-09T14:07:05.345Z,2.60
2023-05-09T14:12:14.837Z,2.20
2023-05-09T14:17:23.514Z,3.10
2023-05-09T14:22:31.173Z,2.70
2023-05-09T14:27:38.594Z,2.80
2023-05-09T14:32:47.087Z,2.80
2023-05-09T14:37:54.793Z,2.50
2023-05-09T14:43:03.075Z,2.80
2023-05-09T14:48:10.912Z,2.80
2023-05-09T14:53:18.941Z,2.80
2023-05-09T14:58:26.964Z,2.60
2023-05-09T15:03:34.773Z,2.40
2023-05-09T15:08:42.598Z,2.60
2023-05-09T15:13:50.391Z,3.10
2023-05-09T15:18:58.864Z,2.90
2023-05-09T15:24:06.771Z,3.00
2023-05-09T15:29:14.304Z,3.10
2023-05-09T15:34:23.282Z,3.20
2023-05-09T15:39:36.156Z,3.20
2023-05-09T15:44:44.059Z,3.10
2023-05-09T15:49:52.797Z,2.80
2023-05-09T15:55:00.323Z,2.90
2023-05-09T16:00:10.351Z,3.00
2023-05-09T16:05:20.350Z,3.10
2023-05-09T16:10:28.218Z,3.30
2023-05-09T16:15:35.952Z,3.00
2023-05-09T16:20:44.384Z,2.70
2023-05-09T16:25:52.005Z,2.90
2023-05-09T16:31:00.586Z,3.00
2023-05-09T16:36:09.499Z,2.90
2023-05-09T16:41:17.582Z,2.50
2023-05-09T16:46:25.049Z,2.80
2023-05-09T16:51:32.859Z,2.90
2023-05-09T16:56:40.181Z,3.20
2023-05-09T17:01:48.231Z,2.90
2023-05-09T17:06:55.613Z,2.70
2023-05-09T17:12:02.978Z,3.60
2023-05-09T17:17:10.294Z,2.90
2023-05-09T17:22:18.061Z,2.90
2023-05-09T17:27:26.151Z,2.80
2023-05-09T17:32:33.909Z,2.90
2023-05-09T17:37:41.670Z,3.20
2023-05-09T17:42:49.059Z,3.30
2023-05-09T17:47:56.427Z,3.30
2023-05-09T17:53:03.981Z,3.80
2023-05-09T17:58:11.784Z,4.70
2023-05-09T18:03:19.382Z,5.00
2023-05-09T18:08:26.977Z,4.10
2023-05-09T18:13:34.837Z,4.40
2023-05-09T18:18:42.266Z,4.60
2023-05-09T18:23:49.694Z,4.70
2023-05-09T18:28:56.947Z,4.80
2023-05-09T18:34:04.405Z,3.80
2023-05-09T18:39:14.569Z,3.10
2023-05-09T18:44:21.888Z,4.10
2023-05-09T18:49:29.442Z,3.30
2023-05-09T18:54:38.593Z,3.30
2023-05-09T18:59:46.285Z,3.30
2023-05-09T19:04:53.610Z,5.30
2023-05-09T19:10:01.873Z,5.40
2023-05-09T19:15:11.373Z,4.40
2023-05-09T19:20:19.018Z,4.60
2023-05-09T19:25:26.572Z,3.80
2023-05-09T19:30:34.181Z,4.10
2023-05-09T19:35:42.531Z,3.60
2023-05-09T19:40:50.329Z,4.20
2023-05-09T19:45:57.730Z,4.20
2023-05-09T19:51:05.764Z,3.80
2023-05-09T19:56:14.300Z,3.40
2023-05-09T20:01:22.788Z,3.60
2023-05-09T20:06:48.460Z,3.80
2023-05-09T20:11:55.819Z,3.00
2023-05-09T20:17:04.556Z,3.10
2023-05-09T20:22:11.884Z,3.90
2023-05-09T20:27:19.452Z,3.20
2023-05-09T20:32:27.169Z,5.80
2023-05-09T20:37:34.331Z,4.10
2023-05-09T20:42:42.174Z,6.80
2023-05-09T20:47:49.540Z,10.20
2023-05-09T20:52:57.025Z,11.30
2023-05-09T20:58:04.565Z,10.30
2023-05-09T21:03:12.206Z,11.00
2023-05-09T21:08:19.784Z,11.00
2023-05-09T21:13:27.525Z,10.60
2023-05-09T21:18:34.907Z,8.40
2023-05-09T21:23:42.661Z,6.10
2023-05-09T21:28:50.097Z,5.10
2023-05-09T21:33:57.885Z,4.80
2023-05-09T21:39:09.583Z,4.90
2023-05-09T21:44:17.353Z,5.30
2023-05-09T21:49:24.477Z,4.80
2023-05-09T21:54:31.977Z,5.70
2023-05-09T21:59:40.391Z,5.60
2023-05-09T22:04:47.876Z,5.70
2023-05-09T22:09:55.401Z,6.10
2023-05-09T22:15:03.458Z,5.20
2023-05-09T22:20:12.814Z,4.60
2023-05-09T22:25:20.402Z,4.70
2023-05-09T22:30:29.064Z,4.70
2023-05-09T22:35:36.659Z,4.90
2023-05-09T22:40:44.150Z,4.40
2023-05-09T22:45:52.134Z,4.80
2023-05-09T22:50:59.415Z,4.60
2023-05-09T22:56:07.935Z,4.20
2023-05-09T23:01:15.384Z,4.10
2023-05-09T23:06:23.194Z,3.60
2023-05-09T23:11:30.895Z,3.90
2023-05-09T23:16:38.116Z,3.50
2023-05-09T23:21:45.616Z,3.60
2023-05-09T23:26:53.029Z,4.10
2023-05-09T23:32:00.512Z,3.50
2023-05-09T23:37:08.010Z,3.40
2023-05-09T23:42:15.509Z,3.50
2023-05-09T23:47:23.377Z,3.40
2023-05-09T23:52:30.980Z,4.00
2023-05-09T23:57:38.772Z,4.00
